createdAt,value
2019-03-16T00:00:52.111Z,8.57
2019-03-16T00:03:17.954Z,9.27
2019-03-16T00:05:43.784Z,8.97
2019-03-16T00:08:09.666Z,8.53
2019-03-16T00:10:35.510Z,8.93
2019-03-16T00:13:01.354Z,8.63
2019-03-16T00:15:27.286Z,9.33
2019-03-16T00:17:53.118Z,9.43
2019-03-16T00:20:19.051Z,8.73
2019-03-16T00:22:44.914Z,8.10
2019-03-16T00:25:10.756Z,8.00
2019-03-16T00:27:36.784Z,8.20
2019-03-16T00:30:13.111Z,7.83
2019-03-16T00:32:39.083Z,8.00
2019-03-16T00:35:05.215Z,7.63
2019-03-16T00:37:31.074Z,8.37
2019-03-16T00:39:56.971Z,7.80
2019-03-16T00:42:23.609Z,7.70
2019-03-16T00:44:49.498Z,7.43
2019-03-16T00:47:15.617Z,7.70
2019-03-16T00:49:41.421Z,8.60
2019-03-16T00:52:07.481Z,7.50
2019-03-16T00:54:33.368Z,7.10
2019-03-16T00:56:59.215Z,7.03
2019-03-16T00:59:25.107Z,7.43
2019-03-16T01:01:50.926Z,7.90
2019-03-16T01:04:16.857Z,7.40
2019-03-16T01:06:42.748Z,8.23
2019-03-16T01:09:08.581Z,6.90
2019-03-16T01:11:34.533Z,8.10
2019-03-16T01:14:00.424Z,6.77
2019-03-16T01:16:26.341Z,7.30
2019-03-16T01:18:52.169Z,7.20
2019-03-16T01:21:18.130Z,6.90
2019-03-16T01:23:44.085Z,7.27
2019-03-16T01:26:10.010Z,7.10
2019-03-16T01:28:35.901Z,7.10
2019-03-16T01:31:01.839Z,6.73
2019-03-16T01:33:27.668Z,6.80
2019-03-16T01:35:53.750Z,6.87
2019-03-16T01:38:19.715Z,6.60
2019-03-16T01:40:45.707Z,7.17
2019-03-16T01:43:11.526Z,6.83
2019-03-16T01:45:37.359Z,6.27
2019-03-16T01:48:03.440Z,6.50
2019-03-16T01:50:29.269Z,6.60
2019-03-16T01:52:55.211Z,6.47
2019-03-16T01:55:21.023Z,6.37
2019-03-16T01:57:46.862Z,7.20
2019-03-16T02:00:14.859Z,7.20
2019-03-16T02:02:53.847Z,6.63
2019-03-16T02:05:08.785Z,7.00
2019-03-16T02:07:34.613Z,6.60
2019-03-16T02:10:00.448Z,6.40
2019-03-16T02:12:26.443Z,7.20
2019-03-16T02:14:52.299Z,6.63
2019-03-16T02:17:18.151Z,6.47
2019-03-16T02:19:44.226Z,6.93
2019-03-16T02:22:10.020Z,6.40
2019-03-16T02:24:35.974Z,6.67
2019-03-16T02:27:02.084Z,6.73
2019-03-16T02:29:27.909Z,6.97
2019-03-16T02:31:53.832Z,6.70
2019-03-16T02:34:19.705Z,6.90
2019-03-16T02:36:50.241Z,6.53
2019-03-16T02:39:16.142Z,6.43
2019-03-16T02:41:41.991Z,6.27
2019-03-16T02:44:11.126Z,6.07
2019-03-16T02:46:35.824Z,6.30
2019-03-16T02:49:01.683Z,5.97
2019-03-16T02:51:27.518Z,6.30
2019-03-16T02:53:53.376Z,6.33
2019-03-16T02:56:19.208Z,5.73
2019-03-16T02:58:48.771Z,5.90
2019-03-16T03:01:14.818Z,5.63
2019-03-16T03:03:40.619Z,5.87
2019-03-16T03:06:06.458Z,5.90
2019-03-16T03:08:32.388Z,6.30
2019-03-16T03:10:58.367Z,6.00
2019-03-16T03:13:24.309Z,5.80
2019-03-16T03:15:50.194Z,6.07
2019-03-16T03:18:16.185Z,6.17
2019-03-16T03:20:42.021Z,6.00
2019-03-16T03:23:07.871Z,6.40
2019-03-16T03:25:33.718Z,6.73
2019-03-16T03:27:59.555Z,6.63
2019-03-16T03:30:25.512Z,6.43
2019-03-16T03:32:51.424Z,6.10
2019-03-16T03:35:17.260Z,6.40
2019-03-16T03:37:43.347Z,6.80
2019-03-16T03:40:10.481Z,6.87
2019-03-16T03:42:36.542Z,6.93
2019-03-16T03:45:04.710Z,6.40
2019-03-16T03:47:30.655Z,6.23
2019-03-16T03:49:56.602Z,6.17
2019-03-16T03:52:22.449Z,6.90
2019-03-16T03:54:48.380Z,6.97
2019-03-16T03:57:14.384Z,6.57
2019-03-16T03:59:40.480Z,7.50
2019-03-16T04:02:06.628Z,6.70
2019-03-16T04:04:32.579Z,6.70
2019-03-16T04:06:58.597Z,6.57
2019-03-16T04:09:24.749Z,6.50
2019-03-16T04:11:50.589Z,6.50
2019-03-16T04:14:16.506Z,6.37
2019-03-16T04:16:42.344Z,7.17
2019-03-16T04:19:08.182Z,6.30
2019-03-16T04:21:34.175Z,6.03
2019-03-16T04:24:00.004Z,5.97
2019-03-16T04:26:25.858Z,5.53
2019-03-16T04:28:51.790Z,5.53
2019-03-16T04:31:17.622Z,5.77
2019-03-16T04:33:43.462Z,5.50
2019-03-16T04:36:09.409Z,5.10
2019-03-16T04:38:35.258Z,5.20
2019-03-16T04:41:01.295Z,4.87
2019-03-16T04:43:27.153Z,5.57
2019-03-16T04:45:52.991Z,5.23
2019-03-16T04:48:18.813Z,5.67
2019-03-16T04:50:44.800Z,5.50
2019-03-16T04:53:10.617Z,5.92
2019-03-16T04:55:36.469Z,5.63
2019-03-16T04:58:02.504Z,5.00
2019-03-16T05:00:28.489Z,5.73
2019-03-16T05:02:54.337Z,6.07
2019-03-16T05:05:20.214Z,5.60
2019-03-16T05:07:46.057Z,5.50
2019-03-16T05:10:12.080Z,5.57
2019-03-16T05:12:38.077Z,5.17
2019-03-16T05:15:08.408Z,5.70
2019-03-16T05:17:34.240Z,5.77
2019-03-16T05:20:00.408Z,5.60
2019-03-16T05:22:26.278Z,6.30
2019-03-16T05:24:52.105Z,5.77
2019-03-16T05:27:18.173Z,6.53
2019-03-16T05:29:44.017Z,6.27
2019-03-16T05:32:09.945Z,5.97
2019-03-16T05:34:35.802Z,5.87
2019-03-16T05:37:01.725Z,6.13
2019-03-16T05:39:27.762Z,6.10
2019-03-16T05:41:53.590Z,6.90
2019-03-16T05:44:19.438Z,5.93
2019-03-16T05:46:45.281Z,6.70
2019-03-16T05:49:11.133Z,6.13
2019-03-16T05:51:37.107Z,6.70
2019-03-16T05:54:03.135Z,6.17
2019-03-16T05:56:28.982Z,6.37
2019-03-16T05:58:54.911Z,6.17
2019-03-16T06:01:20.788Z,6.03
2019-03-16T06:03:46.838Z,6.83
2019-03-16T06:06:12.736Z,6.13
2019-03-16T06:08:38.603Z,5.43
2019-03-16T06:11:04.403Z,5.67
2019-03-16T06:13:30.309Z,6.03
2019-03-16T06:15:56.226Z,5.87
2019-03-16T06:18:22.065Z,6.00
2019-03-16T06:20:48.017Z,6.30
2019-03-16T06:23:13.861Z,6.47
2019-03-16T06:25:39.771Z,6.00
2019-03-16T06:28:05.743Z,6.47
2019-03-16T06:30:31.547Z,6.47
2019-03-16T06:32:57.366Z,6.80
2019-03-16T06:35:25.038Z,6.23
2019-03-16T06:37:51.076Z,6.23
2019-03-16T06:40:16.913Z,6.27
2019-03-16T06:42:42.878Z,6.60
2019-03-16T06:45:10.485Z,6.97
2019-03-16T06:47:36.416Z,6.60
2019-03-16T06:50:13.419Z,6.57
2019-03-16T06:52:39.257Z,6.53
2019-03-16T06:55:06.177Z,6.70
2019-03-16T06:57:32.010Z,6.83
2019-03-16T06:59:57.821Z,6.73
2019-03-16T07:02:23.841Z,6.20
2019-03-16T07:04:49.691Z,5.80
2019-03-16T07:07:15.524Z,6.17
2019-03-16T07:09:41.574Z,5.53
2019-03-16T07:12:07.394Z,6.10
2019-03-16T07:14:33.373Z,6.00
2019-03-16T07:17:02.390Z,5.87
2019-03-16T07:19:27.038Z,5.97
2019-03-16T07:21:52.918Z,5.43
2019-03-16T07:24:18.741Z,5.53
2019-03-16T07:26:44.701Z,5.67
2019-03-16T07:29:10.550Z,5.20
2019-03-16T07:31:36.500Z,5.90
2019-03-16T07:34:02.468Z,9.63
2019-03-16T07:36:28.306Z,11.50
2019-03-16T07:38:54.269Z,13.13
2019-03-16T07:41:20.131Z,12.47
2019-03-16T07:43:45.957Z,15.83
2019-03-16T07:46:11.936Z,18.43
2019-03-16T07:48:37.786Z,29.90
2019-03-16T07:51:03.712Z,28.87
2019-03-16T07:53:29.556Z,32.40
2019-03-16T07:55:55.490Z,33.57
2019-03-16T07:58:21.452Z,36.57
2019-03-16T08:00:47.349Z,37.87
2019-03-16T08:03:13.385Z,46.43
2019-03-16T08:05:39.343Z,46.00
2019-03-16T08:08:05.271Z,48.23
2019-03-16T08:10:31.206Z,48.63
2019-03-16T08:12:57.081Z,48.47
2019-03-16T08:15:23.027Z,48.83
2019-03-16T08:17:48.935Z,47.60
2019-03-16T08:20:15.119Z,47.47
2019-03-16T08:22:41.079Z,47.20
2019-03-16T08:25:08.910Z,48.40
2019-03-16T08:27:34.790Z,47.50
2019-03-16T08:30:00.769Z,46.80
2019-03-16T08:32:26.588Z,48.23
2019-03-16T08:34:52.587Z,43.50
2019-03-16T08:37:18.445Z,44.50
2019-03-16T08:39:44.292Z,44.37
2019-03-16T08:42:12.266Z,44.33
2019-03-16T08:44:37.899Z,43.00
2019-03-16T08:47:07.509Z,42.03
2019-03-16T08:49:33.364Z,41.27
2019-03-16T08:51:59.233Z,43.07
2019-03-16T08:54:25.181Z,41.63
2019-03-16T08:56:51.139Z,40.30
2019-03-16T08:59:16.986Z,40.00
2019-03-16T09:01:42.953Z,37.60
2019-03-16T09:04:08.816Z,37.07
2019-03-16T09:06:34.799Z,38.43
2019-03-16T09:09:00.630Z,39.07
2019-03-16T09:11:26.453Z,39.77
2019-03-16T09:13:52.337Z,39.30
2019-03-16T09:16:18.187Z,40.17
2019-03-16T09:18:44.039Z,35.87
2019-03-16T09:21:09.918Z,33.70
2019-03-16T09:23:35.733Z,34.30
2019-03-16T09:26:01.600Z,36.20
2019-03-16T09:28:27.453Z,34.57
2019-03-16T09:30:56.324Z,32.37
2019-03-16T09:33:21.452Z,31.77
2019-03-16T09:35:47.353Z,32.00
2019-03-16T09:38:13.295Z,31.57
2019-03-16T09:40:39.244Z,33.57
2019-03-16T09:43:05.187Z,34.40
2019-03-16T09:45:31.390Z,34.10
2019-03-16T09:47:57.248Z,35.87
2019-03-16T09:50:23.204Z,35.10
2019-03-16T09:52:50.073Z,33.83
2019-03-16T09:55:16.015Z,33.93
2019-03-16T09:57:42.002Z,33.03
2019-03-16T10:00:10.929Z,32.13
2019-03-16T10:02:36.760Z,33.20
2019-03-16T10:05:04.013Z,33.00
2019-03-16T10:07:29.920Z,31.13
2019-03-16T10:09:55.761Z,31.47
2019-03-16T10:12:21.626Z,31.10
2019-03-16T10:14:47.562Z,29.37
2019-03-16T10:17:13.507Z,27.90
2019-03-16T10:19:39.451Z,28.43
2019-03-16T10:22:05.386Z,28.03
2019-03-16T10:24:31.275Z,28.07
2019-03-16T10:26:57.144Z,29.00
2019-03-16T10:29:23.006Z,28.07
2019-03-16T10:31:49.049Z,28.37
2019-03-16T10:34:14.901Z,28.10
2019-03-16T10:36:40.735Z,27.80
2019-03-16T10:39:06.626Z,28.27
2019-03-16T10:41:32.556Z,29.00
2019-03-16T10:43:58.390Z,28.43
2019-03-16T10:46:24.247Z,30.43
2019-03-16T10:48:50.080Z,31.70
2019-03-16T10:51:16.040Z,31.00
2019-03-16T10:53:41.952Z,29.47
2019-03-16T10:56:07.763Z,27.60
2019-03-16T10:58:33.608Z,28.30
2019-03-16T11:00:59.469Z,31.77
2019-03-16T11:03:25.340Z,31.03
2019-03-16T11:05:51.186Z,31.27
2019-03-16T11:08:17.011Z,30.20
2019-03-16T11:10:42.885Z,28.17
2019-03-16T11:13:08.924Z,27.43
2019-03-16T11:15:34.835Z,26.20
2019-03-16T11:18:00.681Z,26.40
2019-03-16T11:20:26.545Z,27.13
2019-03-16T11:22:52.376Z,26.90
2019-03-16T11:25:18.397Z,29.57
2019-03-16T11:27:44.245Z,28.97
2019-03-16T11:30:14.699Z,29.00
2019-03-16T11:32:40.772Z,29.13
2019-03-16T11:35:08.922Z,29.60
2019-03-16T11:37:34.745Z,28.20
2019-03-16T11:40:00.717Z,25.53
2019-03-16T11:42:26.571Z,23.00
2019-03-16T11:44:52.458Z,21.80
2019-03-16T11:47:18.312Z,22.03
2019-03-16T11:49:44.132Z,24.00
2019-03-16T11:52:10.100Z,27.03
2019-03-16T11:54:35.930Z,23.83
2019-03-16T11:57:01.763Z,23.23
2019-03-16T11:59:27.640Z,22.60
2019-03-16T12:02:04.801Z,25.10
2019-03-16T12:04:21.272Z,22.63
2019-03-16T12:06:47.175Z,22.80
2019-03-16T12:09:13.132Z,21.07
2019-03-16T12:11:39.176Z,20.47
2019-03-16T12:14:05.002Z,19.83
2019-03-16T12:16:30.949Z,18.17
2019-03-16T12:18:56.932Z,18.03
2019-03-16T12:21:22.835Z,18.57
2019-03-16T12:23:48.681Z,17.30
2019-03-16T12:26:14.629Z,16.60
2019-03-16T12:28:40.459Z,17.03
2019-03-16T12:31:06.414Z,17.80
2019-03-16T12:33:32.253Z,17.40
2019-03-16T12:35:58.081Z,17.17
2019-03-16T12:38:24.075Z,16.80
2019-03-16T12:40:50.013Z,17.50
2019-03-16T12:43:15.955Z,17.10
2019-03-16T12:45:41.828Z,17.20
2019-03-16T12:48:07.656Z,12.33
2019-03-16T12:50:33.624Z,12.03
2019-03-16T12:52:59.464Z,11.67
2019-03-16T12:55:25.415Z,11.23
2019-03-16T12:57:51.359Z,11.45
2019-03-16T13:00:19.430Z,9.95
2019-03-16T13:02:46.658Z,9.70
2019-03-16T13:05:12.687Z,9.95
2019-03-16T13:07:38.642Z,9.28
2019-03-16T13:10:11.306Z,9.05
2019-03-16T13:12:39.138Z,9.53
2019-03-16T13:15:06.982Z,9.43
2019-03-16T13:17:32.914Z,8.35
2019-03-16T13:19:58.725Z,8.20
2019-03-16T13:22:24.596Z,8.05
2019-03-16T13:24:50.913Z,7.92
2019-03-16T13:27:16.735Z,7.97
2019-03-16T13:29:58.215Z,8.15
2019-03-16T13:32:14.784Z,8.00
2019-03-16T13:34:41.957Z,7.22
2019-03-16T13:37:07.811Z,7.40
2019-03-16T13:39:33.725Z,8.10
2019-03-16T13:41:59.684Z,6.45
2019-03-16T13:44:25.498Z,6.85
2019-03-16T13:46:52.770Z,7.05
2019-03-16T13:49:18.642Z,6.80
2019-03-16T13:51:47.665Z,6.67
2019-03-16T13:54:13.627Z,6.65
2019-03-16T13:56:39.548Z,6.83
2019-03-16T13:59:05.403Z,7.40
2019-03-16T14:01:31.604Z,7.10
2019-03-16T14:03:57.527Z,6.65
2019-03-16T14:06:23.365Z,6.37
2019-03-16T14:08:49.457Z,6.65
2019-03-16T14:11:15.311Z,6.72
2019-03-16T14:13:41.134Z,6.62
2019-03-16T14:16:07.097Z,6.33
2019-03-16T14:18:32.942Z,7.33
2019-03-16T14:20:58.894Z,6.50
2019-03-16T14:23:24.738Z,7.80
2019-03-16T14:25:50.675Z,6.42
2019-03-16T14:28:16.914Z,6.03
2019-03-16T14:30:45.246Z,6.72
2019-03-16T14:33:11.466Z,6.30
2019-03-16T14:35:37.416Z,6.58
2019-03-16T14:38:03.363Z,7.40
2019-03-16T14:40:29.291Z,6.40
2019-03-16T14:42:55.212Z,6.45
2019-03-16T14:45:21.391Z,6.37
2019-03-16T14:47:47.213Z,6.97
2019-03-16T14:50:20.121Z,6.75
2019-03-16T14:52:46.172Z,7.12
2019-03-16T14:55:12.196Z,6.50
2019-03-16T14:57:38.120Z,6.33
2019-03-16T15:00:07.817Z,6.37
2019-03-16T15:02:33.873Z,6.72
2019-03-16T15:04:59.729Z,6.37
2019-03-16T15:07:25.705Z,6.50
2019-03-16T15:09:51.641Z,7.03
2019-03-16T15:12:17.497Z,7.28
2019-03-16T15:14:43.391Z,6.70
2019-03-16T15:17:09.440Z,6.20
2019-03-16T15:19:35.342Z,10.93
2019-03-16T15:22:01.227Z,4.70
2019-03-16T15:24:27.059Z,4.42
2019-03-16T15:26:53.017Z,4.40
2019-03-16T15:29:18.852Z,6.35
2019-03-16T15:31:44.816Z,3.67
2019-03-16T15:34:10.768Z,3.40
2019-03-16T15:36:36.625Z,3.12
2019-03-16T15:39:05.249Z,3.10
2019-03-16T15:41:31.088Z,2.92
2019-03-16T15:43:56.932Z,3.40
2019-03-16T15:46:23.058Z,3.00
2019-03-16T15:48:49.019Z,2.85
2019-03-16T15:51:14.834Z,3.02
2019-03-16T15:53:40.874Z,2.72
2019-03-16T15:56:06.851Z,2.75
2019-03-16T15:58:32.772Z,2.95
2019-03-16T16:01:03.643Z,2.90
2019-03-16T16:03:26.492Z,3.77
2019-03-16T16:05:52.524Z,5.83
2019-03-16T16:08:19.458Z,3.02
2019-03-16T16:10:45.539Z,3.20
2019-03-16T16:13:11.418Z,3.30
2019-03-16T16:15:37.269Z,6.17
2019-03-16T16:18:03.207Z,2.85
2019-03-16T16:20:29.245Z,3.30
2019-03-16T16:22:55.090Z,3.62
2019-03-16T16:25:20.916Z,3.37
2019-03-16T16:27:47.110Z,13.93
2019-03-16T16:30:19.950Z,17.42
2019-03-16T16:32:45.946Z,21.23
2019-03-16T16:35:12.827Z,21.87
2019-03-16T16:37:38.845Z,20.82
2019-03-16T16:40:14.677Z,24.72
2019-03-16T16:42:40.511Z,28.27
2019-03-16T16:45:09.151Z,30.90
2019-03-16T16:47:35.178Z,29.83
2019-03-16T16:50:01.035Z,29.47
2019-03-16T16:52:26.879Z,30.53
2019-03-16T16:54:52.810Z,34.50
2019-03-16T16:57:18.734Z,36.30
2019-03-16T16:59:44.586Z,37.20
2019-03-16T17:02:10.557Z,36.07
2019-03-16T17:04:36.509Z,36.57
2019-03-16T17:07:02.861Z,34.40
2019-03-16T17:09:28.790Z,33.53
2019-03-16T17:11:54.716Z,33.33
2019-03-16T17:14:20.596Z,32.53
2019-03-16T17:16:46.436Z,32.07
2019-03-16T17:19:12.331Z,32.43
2019-03-16T17:21:38.459Z,30.10
2019-03-16T17:24:04.515Z,29.70
2019-03-16T17:26:31.573Z,29.70
2019-03-16T17:28:57.407Z,27.20
2019-03-16T17:31:23.266Z,27.67
2019-03-16T17:33:49.193Z,27.13
2019-03-16T17:36:15.044Z,26.50
2019-03-16T17:38:40.990Z,26.07
2019-03-16T17:41:06.979Z,24.83
2019-03-16T17:43:33.194Z,25.87
2019-03-16T17:45:59.054Z,25.93
2019-03-16T17:48:24.901Z,24.70
2019-03-16T17:50:50.827Z,25.57
2019-03-16T17:53:16.657Z,25.40
2019-03-16T17:55:46.225Z,27.67
2019-03-16T17:58:12.297Z,25.67
2019-03-16T18:00:38.206Z,28.23
2019-03-16T18:03:04.274Z,28.70
2019-03-16T18:05:30.238Z,27.93
2019-03-16T18:07:56.192Z,29.53
2019-03-16T18:10:22.081Z,29.33
2019-03-16T18:12:48.270Z,28.47
2019-03-16T18:15:18.403Z,29.33
2019-03-16T18:17:44.321Z,32.73
2019-03-16T18:20:11.977Z,32.50
2019-03-16T18:22:37.781Z,37.20
2019-03-16T18:25:07.046Z,39.97
2019-03-16T18:27:32.977Z,41.60
2019-03-16T18:29:58.843Z,40.97
2019-03-16T18:32:24.702Z,42.73
2019-03-16T18:34:50.563Z,44.77
2019-03-16T18:37:16.509Z,46.27
2019-03-16T18:39:42.318Z,46.00
2019-03-16T18:42:08.163Z,46.37
2019-03-16T18:44:34.258Z,46.87
2019-03-16T18:47:00.095Z,46.10
2019-03-16T18:49:25.908Z,45.47
2019-03-16T18:51:51.837Z,46.20
2019-03-16T18:54:17.697Z,46.07
2019-03-16T18:56:43.795Z,45.97
2019-03-16T18:59:09.749Z,44.47
2019-03-16T19:01:35.604Z,43.43
2019-03-16T19:04:01.436Z,43.13
2019-03-16T19:06:27.325Z,46.60
2019-03-16T19:08:53.139Z,38.00
2019-03-16T19:11:18.977Z,38.67
2019-03-16T19:13:44.917Z,40.90
2019-03-16T19:16:10.764Z,41.73
2019-03-16T19:18:36.678Z,45.07
2019-03-16T19:21:02.870Z,45.83
2019-03-16T19:23:28.699Z,45.87
2019-03-16T19:25:54.536Z,48.90
2019-03-16T19:28:20.518Z,46.03
2019-03-16T19:30:46.383Z,46.37
2019-03-16T19:33:12.201Z,43.50
2019-03-16T19:35:38.103Z,41.83
2019-03-16T19:38:04.042Z,36.90
2019-03-16T19:40:29.970Z,36.93
2019-03-16T19:42:55.858Z,37.07
2019-03-16T19:45:21.707Z,36.13
2019-03-16T19:47:47.540Z,34.83
2019-03-16T19:50:14.388Z,34.10
2019-03-16T19:52:40.321Z,34.97
2019-03-16T19:55:10.976Z,37.17
2019-03-16T19:57:36.970Z,37.87
2019-03-16T20:00:05.884Z,37.07
2019-03-16T20:02:31.828Z,37.50
2019-03-16T20:04:57.647Z,36.60
2019-03-16T20:07:23.587Z,36.70
2019-03-16T20:09:49.443Z,36.77
2019-03-16T20:12:15.276Z,36.67
2019-03-16T20:14:41.182Z,33.57
2019-03-16T20:17:07.006Z,34.13
2019-03-16T20:19:32.844Z,33.07
2019-03-16T20:21:58.699Z,31.57
2019-03-16T20:24:24.660Z,30.70
2019-03-16T20:26:50.607Z,30.70
2019-03-16T20:29:16.487Z,31.97
2019-03-16T20:31:47.093Z,32.43
2019-03-16T20:34:10.134Z,31.73
2019-03-16T20:36:35.975Z,29.13
2019-03-16T20:39:03.710Z,29.67
2019-03-16T20:41:36.199Z,28.20
2019-03-16T20:43:57.465Z,26.30
2019-03-16T20:46:23.398Z,24.63
2019-03-16T20:48:49.300Z,25.03
2019-03-16T20:51:15.242Z,24.37
2019-03-16T20:53:41.080Z,24.50
2019-03-16T20:56:07.150Z,23.37
2019-03-16T20:58:37.103Z,24.00
2019-03-16T21:01:03.168Z,24.70
2019-03-16T21:03:28.989Z,24.37
2019-03-16T21:05:54.860Z,24.33
2019-03-16T21:08:20.828Z,25.27
2019-03-16T21:10:46.655Z,25.47
2019-03-16T21:13:12.557Z,25.63
2019-03-16T21:15:38.518Z,27.00
2019-03-16T21:18:04.578Z,25.90
2019-03-16T21:20:30.538Z,26.50
2019-03-16T21:22:56.575Z,26.43
2019-03-16T21:25:22.539Z,26.10
2019-03-16T21:27:48.546Z,26.07
2019-03-16T21:30:19.608Z,26.80
2019-03-16T21:32:45.628Z,25.07
2019-03-16T21:35:11.465Z,24.80
2019-03-16T21:37:37.416Z,25.47
2019-03-16T21:40:06.642Z,24.53
2019-03-16T21:42:32.611Z,25.20
2019-03-16T21:44:58.654Z,25.40
2019-03-16T21:47:24.970Z,24.77
2019-03-16T21:49:50.918Z,25.50
2019-03-16T21:52:16.975Z,27.00
2019-03-16T21:54:42.877Z,25.50
2019-03-16T21:57:08.977Z,24.77
2019-03-16T21:59:35.037Z,25.40
2019-03-16T22:02:01.132Z,25.70
2019-03-16T22:04:27.112Z,27.00
2019-03-16T22:06:52.936Z,28.57
2019-03-16T22:09:18.797Z,29.23
2019-03-16T22:11:44.674Z,28.67
2019-03-16T22:14:10.558Z,31.87
2019-03-16T22:16:36.512Z,37.50
2019-03-16T22:19:02.534Z,37.27
2019-03-16T22:21:28.513Z,37.33
2019-03-16T22:23:54.467Z,37.00
2019-03-16T22:26:20.340Z,39.57
2019-03-16T22:28:46.193Z,39.50
2019-03-16T22:31:12.118Z,38.10
2019-03-16T22:33:38.179Z,40.43
2019-03-16T22:36:04.115Z,37.83
2019-03-16T22:38:29.978Z,36.87
2019-03-16T22:40:55.854Z,36.13
2019-03-16T22:43:21.806Z,35.23
2019-03-16T22:45:47.700Z,36.00
2019-03-16T22:48:13.668Z,35.90
2019-03-16T22:50:39.713Z,35.53
2019-03-16T22:53:05.666Z,34.37
2019-03-16T22:55:31.587Z,34.13
2019-03-16T22:57:57.443Z,34.17
2019-03-16T23:00:25.668Z,34.67
2019-03-16T23:02:51.597Z,33.63
2019-03-16T23:05:17.654Z,35.03
2019-03-16T23:07:43.662Z,33.27
2019-03-16T23:10:10.705Z,34.17
2019-03-16T23:12:36.530Z,34.60
2019-03-16T23:15:04.910Z,34.17
2019-03-16T23:17:32.313Z,34.53
2019-03-16T23:19:58.137Z,35.37
2019-03-16T23:22:24.106Z,34.43
2019-03-16T23:24:49.932Z,35.63
2019-03-16T23:27:15.897Z,35.97
2019-03-16T23:29:41.791Z,35.63
2019-03-16T23:32:07.753Z,35.63
2019-03-16T23:34:33.629Z,35.27
2019-03-16T23:36:59.465Z,34.33
2019-03-16T23:39:25.329Z,35.37
2019-03-16T23:41:51.297Z,33.67
2019-03-16T23:44:17.223Z,34.53
2019-03-16T23:46:43.154Z,33.70
2019-03-16T23:49:09.049Z,35.53
2019-03-16T23:51:34.879Z,35.80
2019-03-16T23:54:00.817Z,35.20
2019-03-16T23:56:26.852Z,36.80
2019-03-16T23:58:52.945Z,37.60
